createdAt,value
2022-11-24T00:01:23.103Z,99348.19
2022-11-24T00:03:52.940Z,99348.19
2022-11-24T00:06:20.672Z,99355.06
2022-11-24T00:08:47.164Z,99353.22
2022-11-24T00:11:14.660Z,99355.75
2022-11-24T00:13:41.313Z,99358.38
2022-11-24T00:16:09.302Z,99351.44
2022-11-24T00:18:35.627Z,99351.97
2022-11-24T00:21:01.926Z,99365.72
2022-11-24T00:23:29.543Z,99369.13
2022-11-24T00:25:55.837Z,99380.53
2022-11-24T00:28:22.152Z,99376.00
2022-11-24T00:30:48.521Z,99384.91
2022-11-24T00:33:14.818Z,99398.13
2022-11-24T00:35:41.116Z,99395.44
2022-11-24T00:38:07.515Z,99400.16
2022-11-24T00:40:35.301Z,99394.34
2022-11-24T00:43:01.726Z,99392.34
2022-11-24T00:45:28.024Z,99397.25
2022-11-24T00:47:54.433Z,99405.97
2022-11-24T00:50:20.756Z,99396.63
2022-11-24T00:52:47.057Z,99401.13
2022-11-24T00:55:13.390Z,99401.00
2022-11-24T00:57:41.003Z,99409.88
2022-11-24T01:00:08.046Z,99411.53
2022-11-24T01:02:34.404Z,99395.53
2022-11-24T01:05:00.761Z,99405.06
2022-11-24T01:07:27.065Z,99409.13
2022-11-24T01:09:53.545Z,99416.88
2022-11-24T01:12:19.856Z,99415.84
2022-11-24T01:14:47.481Z,99430.63
2022-11-24T01:17:13.798Z,99425.13
2022-11-24T01:19:40.216Z,99412.56
2022-11-24T01:22:06.529Z,99430.50
2022-11-24T01:24:33.113Z,99428.66
2022-11-24T01:26:59.714Z,99440.78
2022-11-24T01:29:26.030Z,99441.78
2022-11-24T01:31:53.614Z,99454.41
2022-11-24T01:34:19.946Z,99457.94
2022-11-24T01:36:46.325Z,99462.28
2022-11-24T01:39:12.803Z,99479.22
2022-11-24T01:41:39.445Z,99463.84
2022-11-24T01:44:19.644Z,99476.25
2022-11-24T01:46:48.517Z,99474.44
2022-11-24T01:49:17.078Z,99472.41
2022-11-24T01:51:48.825Z,99492.09
2022-11-24T01:54:18.216Z,99480.78
2022-11-24T01:56:46.341Z,99501.75
2022-11-24T01:59:13.810Z,99504.00
2022-11-24T02:01:40.245Z,99504.53
2022-11-24T02:04:09.451Z,99510.75
2022-11-24T02:06:37.914Z,99511.41
2022-11-24T02:09:06.813Z,99511.41
2022-11-24T02:11:34.018Z,99512.97
2022-11-24T02:14:00.587Z,99536.25
2022-11-24T02:16:26.937Z,99530.75
2022-11-24T02:18:53.573Z,99531.59
2022-11-24T02:21:19.932Z,99541.25
2022-11-24T02:23:51.382Z,99543.16
2022-11-24T02:26:22.154Z,99550.56
2022-11-24T02:28:49.903Z,99552.13
2022-11-24T02:31:16.253Z,99541.25
2022-11-24T02:33:42.640Z,99547.28
2022-11-24T02:36:08.995Z,99556.03
2022-11-24T02:38:35.946Z,99555.22
2022-11-24T02:41:03.684Z,99548.84
2022-11-24T02:43:32.014Z,99560.41
2022-11-24T02:45:59.820Z,99563.38
2022-11-24T02:48:26.264Z,99570.97
2022-11-24T02:50:52.550Z,99581.00
2022-11-24T02:53:18.850Z,99584.06
2022-11-24T02:55:45.278Z,99581.09
2022-11-24T02:58:11.544Z,99599.56
2022-11-24T03:00:37.824Z,99598.56
2022-11-24T03:03:05.561Z,99592.22
2022-11-24T03:05:31.897Z,99585.00
2022-11-24T03:07:58.267Z,99596.28
2022-11-24T03:10:24.603Z,99589.22
2022-11-24T03:12:50.957Z,99593.44
2022-11-24T03:15:17.431Z,99592.13
2022-11-24T03:17:43.912Z,99594.69
2022-11-24T03:20:12.139Z,99593.72
2022-11-24T03:22:38.522Z,99598.25
2022-11-24T03:25:05.226Z,99601.59
2022-11-24T03:27:31.706Z,99591.75
2022-11-24T03:29:58.095Z,99596.66
2022-11-24T03:32:24.427Z,99591.69
2022-11-24T03:34:50.791Z,99593.22
2022-11-24T03:37:18.492Z,99592.91
2022-11-24T03:39:44.794Z,99599.50
2022-11-24T03:42:11.073Z,99607.13
2022-11-24T03:44:37.448Z,99605.81
2022-11-24T03:47:03.737Z,99602.19
2022-11-24T03:49:30.278Z,99599.88
2022-11-24T03:51:56.740Z,99597.19
2022-11-24T03:54:24.378Z,99597.13
2022-11-24T03:56:50.642Z,99594.38
2022-11-24T03:59:17.103Z,99589.56
2022-11-24T04:01:43.424Z,99599.16
2022-11-24T04:04:10.213Z,99600.53
2022-11-24T04:06:36.575Z,99599.50
2022-11-24T04:09:02.986Z,99607.25
2022-11-24T04:11:30.646Z,99601.59
2022-11-24T04:13:57.058Z,99601.41
2022-11-24T04:16:23.741Z,99595.72
2022-11-24T04:18:51.548Z,99606.88
2022-11-24T04:21:17.943Z,99599.22
2022-11-24T04:23:44.245Z,99600.66
2022-11-24T04:26:10.548Z,99601.44
2022-11-24T04:28:38.120Z,99597.84
2022-11-24T04:31:06.242Z,99605.28
2022-11-24T04:33:32.860Z,99605.81
2022-11-24T04:35:59.152Z,99601.94
2022-11-24T04:39:24.035Z,99595.25
2022-11-24T04:41:11.728Z,99601.31
2022-11-24T04:43:40.867Z,99598.34
2022-11-24T04:46:10.150Z,99588.94
2022-11-24T04:48:36.481Z,99596.69
2022-11-24T04:51:04.226Z,99596.88
2022-11-24T04:53:30.690Z,99609.03
2022-11-24T04:55:56.985Z,99593.31
2022-11-24T04:58:23.293Z,99591.75
2022-11-24T05:00:50.914Z,99588.81
2022-11-24T05:03:17.358Z,99589.88
2022-11-24T05:05:43.696Z,99594.81
2022-11-24T05:08:10.148Z,99595.34
2022-11-24T05:10:36.421Z,99597.22
2022-11-24T05:13:04.318Z,99597.06
2022-11-24T05:15:30.732Z,99601.28
2022-11-24T05:17:58.353Z,99605.81
2022-11-24T05:20:24.989Z,99607.34
2022-11-24T05:22:51.377Z,99605.50
2022-11-24T05:25:17.783Z,99607.28
2022-11-24T05:27:44.079Z,99606.47
2022-11-24T05:30:10.917Z,99614.47
2022-11-24T05:32:37.255Z,99613.34
2022-11-24T05:35:05.444Z,99604.00
2022-11-24T05:37:31.760Z,99608.50
2022-11-24T05:39:58.044Z,99613.00
2022-11-24T05:42:24.363Z,99612.94
2022-11-24T05:44:50.734Z,99621.78
2022-11-24T05:47:17.386Z,99623.63
2022-11-24T05:49:43.774Z,99628.44
2022-11-24T05:52:11.507Z,99635.22
2022-11-24T05:54:37.901Z,99639.53
2022-11-24T05:57:04.768Z,99637.25
2022-11-24T05:59:31.087Z,99642.22
2022-11-24T06:01:57.563Z,99639.22
2022-11-24T06:04:24.050Z,99649.50
2022-11-24T06:06:50.477Z,99640.06
2022-11-24T06:09:18.146Z,99635.22
2022-11-24T06:11:44.458Z,99637.44
2022-11-24T06:14:11.486Z,99625.19
2022-11-24T06:16:38.319Z,99633.94
2022-11-24T06:19:04.703Z,99623.72
2022-11-24T06:21:31.101Z,99621.78
2022-11-24T06:23:57.660Z,99614.69
2022-11-24T06:26:25.317Z,99615.16
2022-11-24T06:28:51.649Z,99616.41
2022-11-24T06:31:18.066Z,99611.56
2022-11-24T06:33:44.499Z,99621.59
2022-11-24T06:36:12.999Z,99616.22
2022-11-24T06:38:39.612Z,99624.75
2022-11-24T06:41:07.060Z,99629.31
2022-11-24T06:43:35.403Z,99625.50
2022-11-24T06:46:02.137Z,99638.97
2022-11-24T06:48:28.891Z,99643.38
2022-11-24T06:50:59.546Z,99639.84
2022-11-24T06:53:25.920Z,99643.22
2022-11-24T06:55:53.003Z,99655.19
2022-11-24T06:58:19.361Z,99654.13
2022-11-24T07:00:46.964Z,99662.09
2022-11-24T07:03:15.370Z,99658.03
2022-11-24T07:05:41.907Z,99656.72
2022-11-24T07:08:10.956Z,99661.66
2022-11-24T07:10:41.334Z,99665.69
2022-11-24T07:13:08.312Z,99665.69
2022-11-24T07:15:34.765Z,99668.09
2022-11-24T07:18:02.384Z,99675.22
2022-11-24T07:20:28.743Z,99671.59
2022-11-24T07:22:55.397Z,99673.97
2022-11-24T07:25:21.785Z,99674.81
2022-11-24T07:27:48.131Z,99675.16
2022-11-24T07:30:14.514Z,99681.59
2022-11-24T07:32:40.898Z,99678.69
2022-11-24T07:35:08.784Z,99673.06
2022-11-24T07:37:35.122Z,99680.88
2022-11-24T07:40:01.760Z,99682.13
2022-11-24T07:42:28.243Z,99687.84
2022-11-24T07:44:54.533Z,99692.09
2022-11-24T07:47:20.938Z,99688.38
2022-11-24T07:49:47.286Z,99693.47
2022-11-24T07:52:15.106Z,99691.47
2022-11-24T07:54:41.540Z,99691.31
2022-11-24T07:57:07.984Z,99693.84
2022-11-24T07:59:34.868Z,99693.00
2022-11-24T08:02:01.444Z,99695.38
2022-11-24T08:04:28.307Z,99696.94
2022-11-24T08:06:54.692Z,99692.88
2022-11-24T08:09:22.296Z,99687.44
2022-11-24T08:11:48.791Z,99685.34
2022-11-24T08:14:15.316Z,99690.09
2022-11-24T08:16:41.715Z,99682.72
2022-11-24T08:19:08.125Z,99688.78
2022-11-24T08:21:34.551Z,99682.09
2022-11-24T08:24:00.873Z,99685.63
2022-11-24T08:26:28.540Z,99686.31
2022-11-24T08:28:55.650Z,99680.78
2022-11-24T08:31:22.216Z,99679.63
2022-11-24T08:33:48.660Z,99677.06
2022-11-24T08:36:16.582Z,99671.75
2022-11-24T08:38:43.460Z,99664.78
2022-11-24T08:41:10.794Z,99657.50
2022-11-24T08:43:38.993Z,99646.38
2022-11-24T08:46:06.539Z,99642.31
2022-11-24T08:48:33.502Z,99648.44
2022-11-24T08:51:05.549Z,99643.44
2022-11-24T08:53:31.805Z,99625.97
2022-11-24T08:55:59.121Z,99629.38
2022-11-24T08:58:25.492Z,99632.72
2022-11-24T09:00:53.146Z,99643.16
2022-11-24T09:03:19.489Z,99650.78
2022-11-24T09:05:53.261Z,99637.56
2022-11-24T09:08:19.695Z,99632.41
2022-11-24T09:10:46.319Z,99637.16
2022-11-24T09:13:12.663Z,99635.41
2022-11-24T09:15:39.317Z,99636.28
2022-11-24T09:18:07.145Z,99629.19
2022-11-24T09:20:33.613Z,99634.47
2022-11-24T09:22:59.940Z,99618.28
2022-11-24T09:25:26.307Z,99621.94
2022-11-24T09:27:52.718Z,99626.69
2022-11-24T09:30:19.180Z,99620.81
2022-11-24T09:32:45.697Z,99626.03
2022-11-24T09:35:13.578Z,99614.31
2022-11-24T09:37:39.955Z,99625.56
2022-11-24T09:40:06.973Z,99609.28
2022-11-24T09:42:39.535Z,99614.66
2022-11-24T09:45:15.753Z,99600.06
2022-11-24T09:47:51.198Z,99613.34
2022-11-24T09:50:20.689Z,99616.28
2022-11-24T09:52:49.518Z,99612.66
2022-11-24T09:55:23.449Z,99615.75
2022-11-24T09:57:51.477Z,99610.75
2022-11-24T10:00:17.978Z,99612.03
2022-11-24T10:02:46.031Z,99616.91
2022-11-24T10:05:12.467Z,99608.53
2022-11-24T10:07:42.709Z,99598.50
2022-11-24T10:10:13.859Z,99603.56
2022-11-24T10:12:48.019Z,99602.38
2022-11-24T10:15:19.560Z,99602.22
2022-11-24T10:17:54.648Z,99602.94
2022-11-24T10:20:26.131Z,99598.38
2022-11-24T10:23:01.585Z,99594.53
2022-11-24T10:25:30.522Z,99584.88
2022-11-24T10:27:58.626Z,99562.63
2022-11-24T10:30:24.994Z,99574.16
2022-11-24T10:32:54.734Z,99570.47
2022-11-24T10:35:22.358Z,99562.13
2022-11-24T10:37:54.428Z,99565.03
2022-11-24T10:40:55.454Z,99569.06
2022-11-24T10:43:12.344Z,99576.69
2022-11-24T10:45:39.368Z,99581.22
2022-11-24T10:48:08.089Z,99587.97
2022-11-24T10:50:36.727Z,99580.56
2022-11-24T10:53:06.586Z,99574.34
2022-11-24T10:55:48.569Z,99575.34
2022-11-24T10:58:16.620Z,99569.50
2022-11-24T11:03:24.052Z,99570.31
2022-11-24T11:05:51.739Z,99572.94
2022-11-24T11:08:19.634Z,99568.03
2022-11-24T11:10:46.833Z,99568.31
2022-11-24T11:13:25.269Z,99563.00
2022-11-24T11:15:51.738Z,99561.69
2022-11-24T11:18:19.060Z,99557.81
2022-11-24T11:20:49.931Z,99552.13
2022-11-24T11:23:21.130Z,99552.66
2022-11-24T11:25:47.459Z,99553.34
2022-11-24T11:28:23.706Z,99549.97
2022-11-24T11:31:19.018Z,99548.97
2022-11-24T11:34:04.615Z,99542.72
2022-11-24T11:36:32.816Z,99548.09
2022-11-24T11:38:59.213Z,99543.50
2022-11-24T11:41:28.628Z,99544.09
2022-11-24T11:44:01.499Z,99546.38
2022-11-24T11:46:31.025Z,99531.19
2022-11-24T11:48:57.445Z,99532.94
2022-11-24T11:51:30.926Z,99532.44
2022-11-24T11:54:05.831Z,99522.22
2022-11-24T11:56:34.829Z,99519.53
2022-11-24T11:59:06.893Z,99521.22
2022-11-24T12:01:43.974Z,99512.13
2022-11-24T12:04:16.030Z,99515.34
2022-11-24T12:06:51.389Z,99509.84
2022-11-24T12:09:23.122Z,99507.81
2022-11-24T12:11:53.137Z,99505.47
2022-11-24T12:14:25.459Z,99492.47
2022-11-24T12:16:58.923Z,99498.66
2022-11-24T12:19:31.743Z,99492.25
2022-11-24T12:22:02.586Z,99486.91
2022-11-24T12:24:35.504Z,99503.50
2022-11-24T12:27:05.444Z,99482.47
2022-11-24T12:29:45.286Z,99466.31
2022-11-24T12:32:22.346Z,99481.41
2022-11-24T12:34:53.520Z,99460.53
2022-11-24T12:37:26.602Z,99455.03
2022-11-24T12:39:55.474Z,99447.00
2022-11-24T12:42:26.361Z,99444.81
2022-11-24T12:44:59.291Z,99437.28
2022-11-24T12:47:32.056Z,99431.84
2022-11-24T12:50:02.680Z,99428.09
2022-11-24T12:52:31.222Z,99433.78
2022-11-24T12:54:57.862Z,99431.13
2022-11-24T12:57:27.510Z,99432.34
2022-11-24T12:59:56.756Z,99430.69
2022-11-24T13:02:28.273Z,99424.88
2022-11-24T13:04:58.885Z,99426.38
2022-11-24T13:07:36.069Z,99430.56
2022-11-24T13:10:12.242Z,99420.34
2022-11-24T13:12:52.276Z,99415.66
2022-11-24T13:15:43.391Z,99427.25
2022-11-24T13:18:25.462Z,99410.81
2022-11-24T13:20:53.202Z,99409.59
2022-11-24T13:23:23.016Z,99408.38
2022-11-24T13:26:13.567Z,99407.16
2022-11-24T13:29:01.753Z,99404.63
2022-11-24T13:31:30.319Z,99397.13
2022-11-24T13:33:57.345Z,99392.97
2022-11-24T13:36:29.829Z,99387.59
2022-11-24T13:38:56.264Z,99392.31
2022-11-24T13:41:37.464Z,99389.13
2022-11-24T13:44:17.411Z,99381.38
2022-11-24T13:46:53.734Z,99385.91
2022-11-24T13:49:20.498Z,99383.22
2022-11-24T13:51:48.250Z,99388.41
2022-11-24T13:54:14.723Z,99383.03
2022-11-24T13:56:41.143Z,99388.75
2022-11-24T13:59:16.149Z,99379.53
2022-11-24T14:01:42.729Z,99374.47
2022-11-24T14:04:33.985Z,99361.03
2022-11-24T14:07:07.963Z,99358.69
2022-11-24T14:09:37.169Z,99363.44
2022-11-24T14:12:06.639Z,99367.19
2022-11-24T14:14:33.340Z,99367.00
2022-11-24T14:17:08.512Z,99364.81
2022-11-24T14:19:35.004Z,99355.03
2022-11-24T14:22:02.913Z,99358.91
2022-11-24T14:24:32.769Z,99360.59
2022-11-24T14:27:01.877Z,99359.72
2022-11-24T14:29:28.216Z,99345.88
2022-11-24T14:31:55.837Z,99344.84
2022-11-24T14:34:23.335Z,99349.91
2022-11-24T14:36:50.854Z,99335.50
2022-11-24T14:39:19.170Z,99342.75
2022-11-24T14:41:50.517Z,99344.97
2022-11-24T14:44:19.295Z,99333.84
2022-11-24T14:46:46.011Z,99337.88
2022-11-24T14:49:16.782Z,99337.69
2022-11-24T14:51:44.179Z,99328.84
2022-11-24T14:54:15.274Z,99328.66
2022-11-24T14:56:55.736Z,99325.47
2022-11-24T14:59:23.001Z,99324.13
2022-11-24T15:01:49.524Z,99309.81
2022-11-24T15:04:54.578Z,99310.50
2022-11-24T15:07:06.098Z,99316.53
2022-11-24T15:09:34.161Z,99321.06
2022-11-24T15:12:06.379Z,99313.00
2022-11-24T15:14:36.748Z,99317.03
2022-11-24T15:17:03.914Z,99317.53
2022-11-24T15:19:32.144Z,99312.97
2022-11-24T15:21:58.467Z,99307.59
2022-11-24T15:24:24.831Z,99296.66
2022-11-24T15:26:58.086Z,99282.25
2022-11-24T15:29:25.753Z,99265.81
2022-11-24T15:31:53.120Z,99289.09
2022-11-24T15:34:19.645Z,99298.28
2022-11-24T15:36:45.964Z,99273.63
2022-11-24T15:39:12.343Z,99289.66
2022-11-24T15:41:38.747Z,99281.28
2022-11-24T15:44:05.060Z,99281.47
2022-11-24T15:46:32.762Z,99283.50
2022-11-24T15:48:59.144Z,99299.09
2022-11-24T15:51:26.014Z,99296.22
2022-11-24T15:53:58.711Z,99303.81
2022-11-24T15:56:29.802Z,99305.50
2022-11-24T15:58:56.366Z,99315.22
2022-11-24T16:01:24.265Z,99319.72
2022-11-24T16:03:51.987Z,99316.34
2022-11-24T16:06:24.500Z,99306.22
2022-11-24T16:08:51.335Z,99313.97
2022-11-24T16:11:17.719Z,99317.53
2022-11-24T16:13:48.544Z,99314.22
2022-11-24T16:16:18.234Z,99313.69
2022-11-24T16:18:44.799Z,99329.50
2022-11-24T16:21:12.359Z,99317.41
2022-11-24T16:23:38.678Z,99299.75
2022-11-24T16:26:05.465Z,99315.88
2022-11-24T16:28:31.828Z,99325.47
2022-11-24T16:30:58.358Z,99323.78
2022-11-24T16:33:24.756Z,99326.13
2022-11-24T16:35:51.232Z,99340.50
2022-11-24T16:38:18.855Z,99324.03
2022-11-24T16:40:50.135Z,99328.34
2022-11-24T16:43:16.495Z,99346.50
2022-11-24T16:45:45.564Z,99343.50
2022-11-24T16:48:12.163Z,99334.13
2022-11-24T16:50:39.177Z,99335.13
2022-11-24T16:53:05.481Z,99323.06
2022-11-24T16:55:33.066Z,99330.66
2022-11-24T16:57:59.373Z,99325.94
2022-11-24T17:00:25.687Z,99326.78
2022-11-24T17:02:52.227Z,99326.13
2022-11-24T17:05:18.610Z,99325.09
2022-11-24T17:07:45.108Z,99329.44
2022-11-24T17:10:11.582Z,99326.13
2022-11-24T17:12:39.193Z,99315.00
2022-11-24T17:18:22.354Z,99323.81
2022-11-24T17:20:38.171Z,99323.00
2022-11-24T17:23:04.452Z,99326.38
2022-11-24T17:25:31.684Z,99331.28
2022-11-24T17:27:59.365Z,99324.91
2022-11-24T17:30:25.650Z,99337.31
2022-11-24T17:32:56.586Z,99340.69
2022-11-24T17:35:23.719Z,99342.53
2022-11-24T17:37:50.298Z,99359.50
2022-11-24T17:40:32.134Z,99360.34
2022-11-24T17:43:00.366Z,99361.16
2022-11-24T17:45:27.214Z,99370.88
2022-11-24T17:47:53.597Z,99356.41
2022-11-24T17:50:29.828Z,99368.94
2022-11-24T17:52:56.121Z,99369.97
2022-11-24T17:55:22.423Z,99370.03
2022-11-24T17:57:51.994Z,99378.75
2022-11-24T18:00:19.846Z,99378.41
2022-11-24T18:02:46.221Z,99368.69
2022-11-24T18:07:47.990Z,99380.78
2022-11-24T18:10:14.483Z,99367.34
2022-11-24T18:12:40.790Z,99376.25
2022-11-24T18:15:07.456Z,99364.47
2022-11-24T18:17:35.095Z,99379.34
2022-11-24T18:20:01.412Z,99372.94
2022-11-24T18:22:50.108Z,99385.56
2022-11-24T18:25:14.100Z,99384.09
2022-11-24T18:27:40.436Z,99392.66
2022-11-24T18:30:07.285Z,99397.19
2022-11-24T18:32:34.963Z,99398.69
2022-11-24T18:35:01.273Z,99395.03
2022-11-24T18:37:28.999Z,99407.63
2022-11-24T18:39:55.438Z,99415.31
2022-11-24T18:42:21.821Z,99409.94
2022-11-24T18:44:52.570Z,99409.28
2022-11-24T18:47:20.383Z,99420.78
2022-11-24T18:49:48.000Z,99417.53
2022-11-24T18:52:14.364Z,99414.28
2022-11-24T18:54:40.692Z,99409.16
2022-11-24T18:57:07.024Z,99400.31
2022-11-24T18:59:33.281Z,99407.22
2022-11-24T19:01:59.635Z,99417.78
2022-11-24T19:04:26.090Z,99416.78
2022-11-24T19:06:53.843Z,99421.16
2022-11-24T19:09:20.229Z,99416.44
2022-11-24T19:11:47.256Z,99409.94
2022-11-24T19:14:14.820Z,99394.81
2022-11-24T19:16:41.368Z,99390.28
2022-11-24T19:19:07.863Z,99409.94
2022-11-24T19:21:35.312Z,99423.16
2022-11-24T19:24:05.413Z,99410.31
2022-11-24T19:26:32.326Z,99425.03
2022-11-24T19:28:58.606Z,99429.63
2022-11-24T19:31:25.066Z,99434.50
2022-11-24T19:33:51.498Z,99440.56
2022-11-24T19:36:18.840Z,99438.59
2022-11-24T19:38:48.734Z,99443.97
2022-11-24T19:41:17.044Z,99438.59
2022-11-24T19:43:43.445Z,99446.34
2022-11-24T19:46:10.972Z,99448.16
2022-11-24T19:48:38.196Z,99452.53
2022-11-24T19:51:05.959Z,99452.84
2022-11-24T19:53:32.538Z,99456.22
2022-11-24T19:56:02.968Z,99466.91
2022-11-24T19:58:30.851Z,99474.13
2022-11-24T20:01:04.822Z,99473.19
2022-11-24T20:03:31.189Z,99474.75
2022-11-24T20:05:57.522Z,99471.91
2022-11-24T20:08:23.844Z,99477.94
2022-11-24T20:10:50.180Z,99474.25
2022-11-24T20:13:16.505Z,99468.75
2022-11-24T20:15:44.288Z,99463.38
2022-11-24T20:18:10.685Z,99476.63
2022-11-24T20:20:37.031Z,99478.34
2022-11-24T20:23:03.377Z,99475.47
2022-11-24T20:25:29.676Z,99473.41
2022-11-24T20:27:55.954Z,99483.88
2022-11-24T20:30:22.297Z,99484.47
2022-11-24T20:32:49.918Z,99480.50
2022-11-24T20:35:18.369Z,99487.91
2022-11-24T20:37:44.877Z,99501.03
2022-11-24T20:40:11.454Z,99509.91
2022-11-24T20:42:37.835Z,99510.47
2022-11-24T20:45:04.410Z,99512.31
2022-11-24T20:47:30.848Z,99510.34
2022-11-24T20:49:58.519Z,99505.81
2022-11-24T20:52:24.851Z,99502.94
2022-11-24T20:54:51.197Z,99514.53
2022-11-24T20:57:17.527Z,99513.16
2022-11-24T20:59:43.839Z,99511.00
2022-11-24T21:02:10.229Z,99520.53
2022-11-24T21:04:36.962Z,99516.53
2022-11-24T21:07:04.969Z,99524.13
2022-11-24T21:09:31.472Z,99516.78
2022-11-24T21:11:57.891Z,99522.81
2022-11-24T21:14:24.178Z,99519.97
2022-11-24T21:16:50.566Z,99523.34
2022-11-24T21:19:17.048Z,99537.50
2022-11-24T21:21:43.942Z,99543.69
2022-11-24T21:24:12.252Z,99550.75
2022-11-24T21:26:39.194Z,99556.94
2022-11-24T21:29:06.425Z,99561.88
2022-11-24T21:31:34.539Z,99567.13
2022-11-24T21:34:00.855Z,99562.47
2022-11-24T21:36:27.188Z,99567.22
2022-11-24T21:38:54.467Z,99576.78
2022-11-24T21:41:22.702Z,99578.50
2022-11-24T21:43:49.358Z,99575.50
2022-11-24T21:46:15.995Z,99582.69
2022-11-24T21:48:42.450Z,99590.59
2022-11-24T21:51:11.632Z,99596.81
2022-11-24T21:53:38.475Z,99601.19
2022-11-24T21:56:06.153Z,99603.63
2022-11-24T21:58:33.790Z,99602.50
2022-11-24T22:01:01.256Z,99614.22
2022-11-24T22:03:27.634Z,99614.47
2022-11-24T22:05:53.964Z,99611.31
2022-11-24T22:08:20.282Z,99620.06
2022-11-24T22:10:46.687Z,99616.38
2022-11-24T22:13:13.104Z,99623.44
2022-11-24T22:15:40.658Z,99632.19
2022-11-24T22:18:06.976Z,99628.50
2022-11-24T22:20:33.282Z,99628.50
2022-11-24T22:22:59.709Z,99641.59
2022-11-24T22:25:26.140Z,99628.50
2022-11-24T22:27:52.474Z,99636.25
2022-11-24T22:30:18.839Z,99641.75
2022-11-24T22:32:46.432Z,99633.09
2022-11-24T22:35:12.794Z,99644.34
2022-11-24T22:37:39.095Z,99649.72
2022-11-24T22:40:05.938Z,99651.28
2022-11-24T22:42:32.222Z,99649.44
2022-11-24T22:44:58.485Z,99650.25
2022-11-24T22:47:24.788Z,99659.84
2022-11-24T22:49:52.375Z,99654.50
2022-11-24T22:52:18.716Z,99652.56
2022-11-24T22:54:45.092Z,99652.09
2022-11-24T22:57:11.534Z,99651.38
2022-11-24T22:59:37.838Z,99654.31
2022-11-24T23:02:04.171Z,99660.22
2022-11-24T23:04:30.509Z,99667.13
2022-11-24T23:06:58.154Z,99663.31
2022-11-24T23:09:24.480Z,99664.16
2022-11-24T23:11:50.771Z,99672.03
2022-11-24T23:14:17.210Z,99671.06
2022-11-24T23:16:43.807Z,99686.84
2022-11-24T23:19:10.321Z,99674.59
2022-11-24T23:21:37.325Z,99687.00
2022-11-24T23:24:05.633Z,99677.63
2022-11-24T23:26:33.120Z,99681.75
2022-11-24T23:28:59.895Z,99683.69
2022-11-24T23:31:27.103Z,99689.75
2022-11-24T23:33:53.470Z,99689.59
2022-11-24T23:36:20.319Z,99688.59
2022-11-24T23:38:47.035Z,99700.00
2022-11-24T23:41:15.526Z,99699.03
2022-11-24T23:43:42.475Z,99702.56
2022-11-24T23:46:09.804Z,99711.31
2022-11-24T23:48:36.621Z,99715.44
2022-11-24T23:51:03.507Z,99706.22
2022-11-24T23:53:30.967Z,99718.47
2022-11-24T23:55:57.246Z,99723.25
2022-11-24T23:58:25.010Z,99728.31
